Ladera Ranch, California
Current Conditions -  °F | °C
As of 11:53 AM on Wednesday 28 Jan 2015 (Local Time) from KSNA Reporting Station
Overcast Overcast  
Wind Chill: 74°   Ceiling: 25000
Heat Index: 74°   Visibility: 10mi
Dew Point: 46°   Wind: 5mph
Humidity: 37%   Direction: 260°W
Pressure: 30.09"   Gusts: NA
Location:  33.58°N, 117.64°W
Report Text: KSNA 281953Z 26004KT 10SM SCT200 OVC250 23/08 A3009 RMK AO2 SLP187 T02330078
Loading
Personal Weather Stations






























Interactive Weather Map New forecast layout! Learn more

10-Day Weather Forecast

Advertisements
Track Severe Weather on mobile